createdAt,value
2023-12-16T00:01:01.507Z,98919.13
2023-12-16T00:02:08.633Z,98917.16
2023-12-16T00:03:12.216Z,98916.13
2023-12-16T00:04:14.132Z,98920.47
2023-12-16T00:05:15.997Z,98920.28
2023-12-16T00:06:21.831Z,98930.25
2023-12-16T00:07:24.107Z,98937.69
2023-12-16T00:08:26.007Z,98929.81
2023-12-16T00:09:29.869Z,98924.75
2023-12-16T00:10:32.350Z,98928.16
2023-12-16T00:11:34.566Z,98931.47
2023-12-16T00:12:37.116Z,98932.19
2023-12-16T00:13:39.457Z,98923.50
2023-12-16T00:14:41.969Z,98925.38
2023-12-16T00:15:43.748Z,98921.25
2023-12-16T00:16:46.530Z,98923.94
2023-12-16T00:17:48.498Z,98925.38
2023-12-16T00:18:50.998Z,98931.16
2023-12-16T00:19:53.173Z,98920.59
2023-12-16T00:20:55.012Z,98912.66
2023-12-16T00:21:57.501Z,98916.38
2023-12-16T00:22:59.537Z,98922.91
2023-12-16T00:24:01.336Z,98930.53
2023-12-16T00:25:03.163Z,98931.97
2023-12-16T00:26:05.065Z,98926.81
2023-12-16T00:27:07.063Z,98929.28
2023-12-16T00:28:08.973Z,98933.50
2023-12-16T00:29:11.228Z,98928.25
2023-12-16T00:30:13.019Z,98924.72
2023-12-16T00:31:14.989Z,98918.72
2023-12-16T00:32:16.771Z,98923.78
2023-12-16T00:33:18.663Z,98910.97
2023-12-16T00:34:20.715Z,98916.47
2023-12-16T00:35:23.176Z,98919.59
2023-12-16T00:36:24.913Z,98917.13
2023-12-16T00:37:26.871Z,98916.53
2023-12-16T00:38:28.808Z,98927.06
2023-12-16T00:39:30.556Z,98929.16
2023-12-16T00:40:32.618Z,98923.81
2023-12-16T00:41:34.576Z,98922.38
2023-12-16T00:42:36.516Z,98924.09
2023-12-16T00:43:38.364Z,98919.66
2023-12-16T00:44:40.100Z,98924.81
2023-12-16T00:45:41.893Z,98920.28
2023-12-16T00:46:44.411Z,98926.59
2023-12-16T00:47:46.235Z,98927.97
2023-12-16T00:48:48.285Z,98926.53
2023-12-16T00:49:50.154Z,98931.69
2023-12-16T00:50:52.048Z,98920.53
2023-12-16T00:51:54.008Z,98925.59
2023-12-16T00:52:55.769Z,98925.25
2023-12-16T00:53:57.483Z,98928.69
2023-12-16T00:54:59.360Z,98934.75
2023-12-16T00:56:01.178Z,98929.50
2023-12-16T00:57:03.047Z,98935.56
2023-12-16T00:58:04.918Z,98932.56
2023-12-16T00:59:07.476Z,98933.00
2023-12-16T01:00:09.554Z,98929.34
2023-12-16T01:01:14.981Z,98939.88
2023-12-16T01:02:16.892Z,98941.16
2023-12-16T01:03:18.714Z,98942.91
2023-12-16T01:04:20.515Z,98943.50
2023-12-16T01:05:22.431Z,98943.31
2023-12-16T01:06:24.358Z,98945.91
2023-12-16T01:07:26.497Z,98961.28
2023-12-16T01:08:28.304Z,98948.16
2023-12-16T01:09:30.100Z,98961.78
2023-12-16T01:10:32.409Z,98962.38
2023-12-16T01:11:34.159Z,98962.16
2023-12-16T01:12:35.998Z,98960.44
2023-12-16T01:13:38.434Z,98962.78
2023-12-16T01:14:40.255Z,98963.41
2023-12-16T01:15:42.575Z,98958.22
2023-12-16T01:16:44.434Z,98965.03
2023-12-16T01:17:46.386Z,98952.84
2023-12-16T01:18:48.317Z,98951.81
2023-12-16T01:19:50.649Z,98951.59
2023-12-16T01:20:52.486Z,98954.25
2023-12-16T01:21:54.302Z,98954.25
2023-12-16T01:22:56.205Z,98960.16
2023-12-16T01:23:58.060Z,98958.19
2023-12-16T01:24:59.888Z,98952.91
2023-12-16T01:26:01.816Z,98943.41
2023-12-16T01:27:04.413Z,98950.34
2023-12-16T01:28:06.223Z,98950.34
2023-12-16T01:29:08.019Z,98946.84
2023-12-16T01:30:10.241Z,98957.03
2023-12-16T01:31:12.167Z,98955.28
2023-12-16T01:32:13.942Z,98960.22
2023-12-16T01:33:15.901Z,98955.06
2023-12-16T01:34:17.668Z,98956.72
2023-12-16T01:35:19.462Z,98950.59
2023-12-16T01:36:21.328Z,98962.59
2023-12-16T01:37:23.207Z,98959.16
2023-12-16T01:38:25.079Z,98965.19
2023-12-16T01:39:27.066Z,98961.66
2023-12-16T01:40:29.262Z,98960.84
2023-12-16T01:41:31.137Z,98958.69
2023-12-16T01:42:33.165Z,98960.47
2023-12-16T01:43:34.967Z,98953.53
2023-12-16T01:44:36.971Z,98963.03
2023-12-16T01:45:38.785Z,98961.28
2023-12-16T01:46:40.933Z,98965.38
2023-12-16T01:47:43.608Z,98956.59
2023-12-16T01:48:46.052Z,98950.50
2023-12-16T01:49:49.230Z,98948.69
2023-12-16T01:50:51.142Z,98944.97
2023-12-16T01:51:53.088Z,98946.41
2023-12-16T01:52:55.000Z,98939.38
2023-12-16T01:53:56.855Z,98943.72
2023-12-16T01:54:58.772Z,98944.56
2023-12-16T01:56:00.579Z,98949.09
2023-12-16T01:57:04.653Z,98942.31
2023-12-16T01:58:06.496Z,98950.75
2023-12-16T01:59:08.620Z,98941.16
2023-12-16T02:00:10.581Z,98936.69
2023-12-16T02:01:12.347Z,98947.84
2023-12-16T02:02:15.421Z,98941.66
2023-12-16T02:03:19.502Z,98937.31
2023-12-16T02:04:21.468Z,98936.19
2023-12-16T02:05:23.401Z,98938.19
2023-12-16T02:06:26.434Z,98935.59
2023-12-16T02:07:28.312Z,98931.88
2023-12-16T02:08:30.101Z,98935.28
2023-12-16T02:09:32.807Z,98936.91
2023-12-16T02:10:34.913Z,98932.06
2023-12-16T02:11:37.806Z,98938.38
2023-12-16T02:12:39.980Z,98934.03
2023-12-16T02:13:42.282Z,98933.94
2023-12-16T02:14:44.079Z,98934.66
2023-12-16T02:15:46.184Z,98938.06
2023-12-16T02:16:48.701Z,98938.78
2023-12-16T02:17:50.553Z,98938.56
2023-12-16T02:18:52.864Z,98934.13
2023-12-16T02:19:55.312Z,98932.16
2023-12-16T02:20:57.113Z,98937.53
2023-12-16T02:21:59.049Z,98934.22
2023-12-16T02:23:02.084Z,98933.41
2023-12-16T02:24:04.012Z,98936.91
2023-12-16T02:25:08.644Z,98942.31
2023-12-16T02:26:10.524Z,98939.72
2023-12-16T02:27:12.308Z,98936.19
2023-12-16T02:28:14.493Z,98932.69
2023-12-16T02:29:18.859Z,98935.16
2023-12-16T02:30:22.247Z,98933.75
2023-12-16T02:31:24.495Z,98939.44
2023-12-16T02:32:26.324Z,98941.03
2023-12-16T02:33:28.214Z,98937.81
2023-12-16T02:34:31.476Z,98943.22
2023-12-16T02:35:33.475Z,98937.19
2023-12-16T02:36:35.510Z,98940.41
2023-12-16T02:37:38.214Z,98944.31
2023-12-16T02:38:40.651Z,98943.97
2023-12-16T02:39:42.495Z,98944.81
2023-12-16T02:40:44.791Z,98943.88
2023-12-16T02:41:46.597Z,98945.75
2023-12-16T02:42:48.479Z,98949.69
2023-12-16T02:43:50.330Z,98947.31
2023-12-16T02:44:52.106Z,98947.09
2023-12-16T02:45:54.101Z,98946.38
2023-12-16T02:46:56.011Z,98943.59
2023-12-16T02:47:58.110Z,98947.72
2023-12-16T02:48:59.977Z,98947.09
2023-12-16T02:50:01.975Z,98956.94
2023-12-16T02:51:03.772Z,98957.66
2023-12-16T02:52:05.818Z,98959.28
2023-12-16T02:53:09.153Z,98961.44
2023-12-16T02:54:10.965Z,98957.00
2023-12-16T02:55:14.261Z,98959.72
2023-12-16T02:56:16.410Z,98963.88
2023-12-16T02:57:18.149Z,98966.53
2023-12-16T02:58:20.571Z,98966.22
2023-12-16T02:59:22.300Z,98965.50
2023-12-16T03:00:24.098Z,98970.75
2023-12-16T03:01:25.959Z,98965.59
2023-12-16T03:02:27.859Z,98980.06
2023-12-16T03:03:29.773Z,98981.50
2023-12-16T03:04:31.682Z,98976.13
2023-12-16T03:05:33.565Z,98982.72
2023-12-16T03:06:37.492Z,98990.25
2023-12-16T03:07:40.301Z,98982.63
2023-12-16T03:08:42.200Z,98978.25
2023-12-16T03:09:43.984Z,98981.47
2023-12-16T03:10:45.812Z,98988.50
2023-12-16T03:11:47.669Z,98993.44
2023-12-16T03:12:49.891Z,98986.41
2023-12-16T03:13:51.657Z,98990.75
2023-12-16T03:14:53.472Z,98996.44
2023-12-16T03:15:55.283Z,98987.97
2023-12-16T03:16:57.198Z,98997.38
2023-12-16T03:17:58.963Z,99003.25
2023-12-16T03:19:01.395Z,99008.19
2023-12-16T03:20:05.190Z,99004.72
2023-12-16T03:21:08.534Z,98999.53
2023-12-16T03:22:13.555Z,99005.53
2023-12-16T03:23:15.377Z,99008.00
2023-12-16T03:24:17.442Z,99000.97
2023-12-16T03:25:19.546Z,98999.53
2023-12-16T03:26:21.778Z,99007.38
2023-12-16T03:27:23.585Z,99008.19
2023-12-16T03:28:25.527Z,99011.72
2023-12-16T03:29:28.001Z,99011.00
2023-12-16T03:30:29.969Z,99010.78
2023-12-16T03:31:31.709Z,99007.19
2023-12-16T03:32:33.649Z,99006.97
2023-12-16T03:33:35.682Z,99010.69
2023-12-16T03:34:37.509Z,99016.19
2023-12-16T03:35:39.430Z,99019.38
2023-12-16T03:36:41.548Z,99021.63
2023-12-16T03:37:43.328Z,99026.56
2023-12-16T03:38:45.508Z,99022.84
2023-12-16T03:39:47.359Z,99018.53
2023-12-16T03:40:49.334Z,99024.50
2023-12-16T03:41:51.368Z,99021.81
2023-12-16T03:42:53.149Z,99025.22
2023-12-16T03:43:55.043Z,99029.66
2023-12-16T03:44:56.855Z,99030.59
2023-12-16T03:45:58.698Z,99018.72
2023-12-16T03:47:00.408Z,99019.53
2023-12-16T03:48:02.473Z,99020.25
2023-12-16T03:49:04.545Z,99027.09
2023-12-16T03:50:06.740Z,99025.31
2023-12-16T03:51:08.639Z,99030.28
2023-12-16T03:52:10.496Z,99036.19
2023-12-16T03:53:12.267Z,99031.63
2023-12-16T03:54:14.455Z,99035.94
2023-12-16T03:55:16.255Z,99039.38
2023-12-16T03:56:18.262Z,99041.00
2023-12-16T03:57:20.035Z,99047.84
2023-12-16T03:58:21.887Z,99039.16
2023-12-16T03:59:23.609Z,99036.56
2023-12-16T04:00:25.599Z,99036.56
2023-12-16T04:01:27.648Z,99033.25
2023-12-16T04:02:29.424Z,99039.16
2023-12-16T04:03:31.152Z,99031.28
2023-12-16T04:04:34.508Z,99032.84
2023-12-16T04:05:37.102Z,99034.50
2023-12-16T04:06:38.873Z,99030.97
2023-12-16T04:07:40.928Z,99024.88
2023-12-16T04:08:43.355Z,99029.91
2023-12-16T04:09:46.126Z,99031.78
2023-12-16T04:10:47.928Z,99031.59
2023-12-16T04:11:50.177Z,99029.81
2023-12-16T04:12:52.461Z,99030.16
2023-12-16T04:13:54.213Z,99027.56
2023-12-16T04:14:56.058Z,99029.19
2023-12-16T04:15:57.761Z,99027.94
2023-12-16T04:16:59.658Z,99025.16
2023-12-16T04:18:01.700Z,99027.47
2023-12-16T04:19:04.130Z,99022.84
2023-12-16T04:20:06.304Z,99022.13
2023-12-16T04:21:08.086Z,99024.38
2023-12-16T04:22:09.927Z,99020.63
2023-12-16T04:23:11.695Z,99029.09
2023-12-16T04:24:13.468Z,99026.63
2023-12-16T04:25:15.421Z,99028.19
2023-12-16T04:26:17.313Z,99022.88
2023-12-16T04:27:19.218Z,99028.91
2023-12-16T04:28:21.029Z,99024.66
2023-12-16T04:29:23.137Z,99030.63
2023-12-16T04:30:25.015Z,99028.03
2023-12-16T04:31:26.835Z,99026.19
2023-12-16T04:32:29.850Z,99025.25
2023-12-16T04:33:31.967Z,99025.38
2023-12-16T04:34:33.789Z,99026.19
2023-12-16T04:35:35.907Z,99021.97
2023-12-16T04:36:37.652Z,99024.97
2023-12-16T04:37:40.671Z,99027.28
2023-12-16T04:38:43.207Z,99025.94
2023-12-16T04:39:45.014Z,99025.66
2023-12-16T04:40:46.836Z,99039.38
2023-12-16T04:41:48.653Z,99035.03
2023-12-16T04:42:50.537Z,99032.97
2023-12-16T04:43:54.583Z,99027.59
2023-12-16T04:44:56.436Z,99033.50
2023-12-16T04:45:58.312Z,99040.19
2023-12-16T04:47:00.044Z,99034.22
2023-12-16T04:48:02.749Z,99034.94
2023-12-16T04:49:04.920Z,99038.22
2023-12-16T04:50:06.918Z,99041.53
2023-12-16T04:51:09.191Z,99033.97
2023-12-16T04:52:11.048Z,99035.03
2023-12-16T04:53:12.862Z,99036.19
2023-12-16T04:54:14.699Z,99032.06
2023-12-16T04:55:17.265Z,99031.94
2023-12-16T04:56:19.064Z,99029.97
2023-12-16T04:57:20.870Z,99040.81
2023-12-16T04:58:22.752Z,99043.16
2023-12-16T04:59:24.694Z,99039.88
2023-12-16T05:00:26.486Z,99030.25
2023-12-16T05:01:28.371Z,99037.06
2023-12-16T05:02:47.336Z,99045.56
2023-12-16T05:03:49.350Z,99041.81
2023-12-16T05:04:51.530Z,99043.69
2023-12-16T05:05:53.396Z,99042.97
2023-12-16T05:06:55.701Z,99045.56
2023-12-16T05:07:58.021Z,99046.25
2023-12-16T05:08:59.828Z,99049.56
2023-12-16T05:10:01.654Z,99048.00
2023-12-16T05:11:03.680Z,99039.66
2023-12-16T05:12:05.727Z,99043.50
2023-12-16T05:13:11.433Z,99052.88
2023-12-16T05:14:13.167Z,99057.03
2023-12-16T05:15:15.017Z,99059.63
2023-12-16T05:16:20.348Z,99057.75
2023-12-16T05:17:24.217Z,99060.31
2023-12-16T05:18:26.400Z,99068.81
2023-12-16T05:19:28.629Z,99064.34
2023-12-16T05:20:30.499Z,99065.97
2023-12-16T05:21:32.237Z,99069.53
2023-12-16T05:22:35.572Z,99069.38
2023-12-16T05:23:37.586Z,99070.34
2023-12-16T05:24:39.363Z,99068.47
2023-12-16T05:25:41.453Z,99062.34
2023-12-16T05:26:43.606Z,99069.38
2023-12-16T05:27:45.595Z,99074.69
2023-12-16T05:28:47.609Z,99077.25
2023-12-16T05:29:49.349Z,99074.44
2023-12-16T05:30:51.153Z,99076.94
2023-12-16T05:31:52.918Z,99077.03
2023-12-16T05:32:55.191Z,99074.44
2023-12-16T05:33:57.221Z,99079.63
2023-12-16T05:34:59.865Z,99080.03
2023-12-16T05:36:01.655Z,99071.50
2023-12-16T05:37:03.467Z,99077.91
2023-12-16T05:38:05.593Z,99083.50
2023-12-16T05:39:07.293Z,99088.34
2023-12-16T05:40:10.597Z,99086.28
2023-12-16T05:41:15.986Z,99087.72
2023-12-16T05:42:18.132Z,99079.25
2023-12-16T05:43:20.069Z,99083.72
2023-12-16T05:44:21.948Z,99089.97
2023-12-16T05:45:23.971Z,99091.66
2023-12-16T05:46:25.730Z,99081.94
2023-12-16T05:47:28.471Z,99088.03
2023-12-16T05:48:30.391Z,99086.28
2023-12-16T05:49:32.204Z,99088.97
2023-12-16T05:50:34.092Z,99080.59
2023-12-16T05:51:42.311Z,99083.91
2023-12-16T05:52:44.891Z,99094.22
2023-12-16T05:53:47.271Z,99095.06
2023-12-16T05:54:49.137Z,99091.03
2023-12-16T05:55:50.964Z,99085.47
2023-12-16T05:56:52.774Z,99084.03
2023-12-16T05:57:54.621Z,99091.97
2023-12-16T05:58:56.357Z,99098.16
2023-12-16T05:59:58.322Z,99099.63
2023-12-16T06:01:00.372Z,99108.59
2023-12-16T06:02:02.438Z,99111.28
2023-12-16T06:03:04.220Z,99106.22
2023-12-16T06:04:06.111Z,99103.63
2023-12-16T06:05:08.364Z,99106.34
2023-12-16T06:06:10.255Z,99100.13
2023-12-16T06:07:12.017Z,99103.63
2023-12-16T06:08:13.861Z,99106.94
2023-12-16T06:09:15.713Z,99101.47
2023-12-16T06:10:17.838Z,99109.84
2023-12-16T06:11:19.829Z,99106.22
2023-12-16T06:12:21.732Z,99101.47
2023-12-16T06:13:23.552Z,99108.00
2023-12-16T06:14:25.356Z,99098.56
2023-12-16T06:15:27.154Z,99091.88
2023-12-16T06:16:29.077Z,99087.03
2023-12-16T06:17:31.119Z,99088.88
2023-12-16T06:18:33.333Z,99094.78
2023-12-16T06:19:35.281Z,99093.44
2023-12-16T06:20:37.475Z,99096.53
2023-12-16T06:21:39.231Z,99094.53
2023-12-16T06:22:40.991Z,99096.94
2023-12-16T06:23:42.953Z,99098.47
2023-12-16T06:24:44.803Z,99100.97
2023-12-16T06:25:46.907Z,99097.25
2023-12-16T06:26:48.890Z,99100.72
2023-12-16T06:27:51.527Z,99097.44
2023-12-16T06:28:53.841Z,99102.81
2023-12-16T06:29:55.538Z,99104.69
2023-12-16T06:30:57.951Z,99109.63
2023-12-16T06:32:00.065Z,99114.78
2023-12-16T06:33:01.849Z,99112.31
2023-12-16T06:34:03.727Z,99106.13
2023-12-16T06:35:05.790Z,99111.91
2023-12-16T06:36:07.664Z,99109.31
2023-12-16T06:37:09.509Z,99118.91
2023-12-16T06:38:11.990Z,99122.84
2023-12-16T06:39:14.129Z,99133.59
2023-12-16T06:40:16.194Z,99134.59
2023-12-16T06:41:18.198Z,99137.41
2023-12-16T06:42:20.173Z,99134.50
2023-12-16T06:43:22.005Z,99137.72
2023-12-16T06:44:23.876Z,99137.72
2023-12-16T06:45:25.617Z,99142.16
2023-12-16T06:46:27.451Z,99148.88
2023-12-16T06:47:29.371Z,99147.94
2023-12-16T06:48:31.335Z,99152.88
2023-12-16T06:49:33.678Z,99151.66
2023-12-16T06:50:35.810Z,99147.03
2023-12-16T06:51:37.589Z,99145.06
2023-12-16T06:52:39.398Z,99150.13
2023-12-16T06:53:41.789Z,99150.84
2023-12-16T06:54:43.575Z,99154.06
2023-12-16T06:55:45.421Z,99152.38
2023-12-16T06:56:47.287Z,99152.19
2023-12-16T06:57:49.139Z,99147.03
2023-12-16T06:58:51.115Z,99147.84
2023-12-16T06:59:52.919Z,99145.97
2023-12-16T07:00:54.789Z,99148.38
2023-12-16T07:01:56.772Z,99144.75
2023-12-16T07:02:58.580Z,99151.34
2023-12-16T07:04:00.526Z,99151.25
2023-12-16T07:05:03.121Z,99153.94
2023-12-16T07:06:05.490Z,99151.69
2023-12-16T07:07:07.339Z,99157.88
2023-12-16T07:08:09.136Z,99159.53
2023-12-16T07:09:10.920Z,99158.59
2023-12-16T07:10:12.902Z,99161.28
2023-12-16T07:11:14.764Z,99156.22
2023-12-16T07:12:16.598Z,99158.69
2023-12-16T07:13:18.372Z,99159.53
2023-12-16T07:14:20.804Z,99160.56
2023-12-16T07:15:22.528Z,99162.28
2023-12-16T07:16:24.348Z,99157.97
2023-12-16T07:17:26.208Z,99158.81
2023-12-16T07:18:28.088Z,99157.88
2023-12-16T07:19:31.513Z,99162.19
2023-12-16T07:20:33.835Z,99166.44
2023-12-16T07:21:35.804Z,99160.25
2023-12-16T07:22:37.689Z,99155.06
2023-12-16T07:23:39.486Z,99164.28
2023-12-16T07:24:41.185Z,99163.34
2023-12-16T07:25:43.057Z,99162.50
2023-12-16T07:26:44.840Z,99163.34
2023-12-16T07:27:46.682Z,99159.19
2023-12-16T07:28:48.480Z,99164.19
2023-12-16T07:29:50.944Z,99163.34
2023-12-16T07:30:52.853Z,99164.19
2023-12-16T07:31:54.704Z,99154.66
2023-12-16T07:32:56.803Z,99159.09
2023-12-16T07:33:58.702Z,99153.03
2023-12-16T07:35:00.628Z,99155.59
2023-12-16T07:36:03.208Z,99158.91
2023-12-16T07:37:05.917Z,99159.00
2023-12-16T07:38:08.108Z,99159.00
2023-12-16T07:39:10.424Z,99156.94
2023-12-16T07:40:12.343Z,99163.66
2023-12-16T07:41:14.241Z,99160.22
2023-12-16T07:42:16.183Z,99157.97
2023-12-16T07:43:17.998Z,99147.94
2023-12-16T07:44:19.793Z,99155.28
2023-12-16T07:45:21.517Z,99159.31
2023-12-16T07:46:23.265Z,99151.56
2023-12-16T07:47:25.138Z,99150.13
2023-12-16T07:48:27.223Z,99154.47
2023-12-16T07:49:29.154Z,99152.59
2023-12-16T07:50:30.885Z,99155.06
2023-12-16T07:51:32.792Z,99158.19
2023-12-16T07:52:34.663Z,99164.78
2023-12-16T07:53:36.494Z,99166.97
2023-12-16T07:54:38.350Z,99164.88
2023-12-16T07:55:40.185Z,99161.19
2023-12-16T07:56:41.951Z,99170.47
2023-12-16T07:57:43.932Z,99167.06
2023-12-16T07:58:45.707Z,99165.22
2023-12-16T07:59:49.181Z,99169.94
2023-12-16T08:00:52.071Z,99170.81
2023-12-16T08:01:55.344Z,99178.41
2023-12-16T08:02:57.160Z,99175.97
2023-12-16T08:03:59.013Z,99175.03
2023-12-16T08:05:00.713Z,99177.41
2023-12-16T08:06:02.892Z,99171.84
2023-12-16T08:07:05.165Z,99170.88
2023-12-16T08:08:07.096Z,99175.00
2023-12-16T08:09:08.809Z,99179.03
2023-12-16T08:10:10.552Z,99177.00
2023-12-16T08:11:12.422Z,99182.34
2023-12-16T08:12:14.273Z,99173.69
2023-12-16T08:13:16.052Z,99175.31
2023-12-16T08:14:17.826Z,99178.84
2023-12-16T08:15:19.661Z,99180.91
2023-12-16T08:16:21.513Z,99182.22
2023-12-16T08:17:23.334Z,99175.63
2023-12-16T08:18:25.213Z,99181.41
2023-12-16T08:19:27.093Z,99179.56
2023-12-16T08:20:29.141Z,99180.69
2023-12-16T08:21:30.932Z,99187.41
2023-12-16T08:22:33.045Z,99180.38
2023-12-16T08:23:34.892Z,99189.97
2023-12-16T08:24:36.609Z,99187.53
2023-12-16T08:25:38.579Z,99190.59
2023-12-16T08:26:40.339Z,99191.25
2023-12-16T08:27:42.507Z,99196.00
2023-12-16T08:28:44.394Z,99200.25
2023-12-16T08:29:46.141Z,99204.69
2023-12-16T08:30:50.713Z,99199.53
2023-12-16T08:31:52.694Z,99196.72
2023-12-16T08:32:54.771Z,99199.28
2023-12-16T08:33:56.738Z,99200.03
2023-12-16T08:34:58.592Z,99202.28
2023-12-16T08:36:01.053Z,99195.25
2023-12-16T08:37:02.868Z,99201.78
2023-12-16T08:38:04.858Z,99205.91
2023-12-16T08:39:07.582Z,99194.41
2023-12-16T08:40:11.188Z,99201.16
2023-12-16T08:41:13.634Z,99198.25
2023-12-16T08:42:15.424Z,99196.19
2023-12-16T08:43:17.628Z,99207.13
2023-12-16T08:44:19.472Z,99201.84
2023-12-16T08:45:21.233Z,99200.09
2023-12-16T08:46:25.087Z,99198.47
2023-12-16T08:47:26.918Z,99198.34
2023-12-16T08:48:28.706Z,99204.13
2023-12-16T08:49:30.477Z,99204.13
2023-12-16T08:50:32.229Z,99212.72
2023-12-16T08:51:34.067Z,99207.66
2023-12-16T08:52:36.468Z,99213.63
2023-12-16T08:53:38.245Z,99212.50
2023-12-16T08:54:40.806Z,99215.81
2023-12-16T08:55:43.731Z,99211.44
2023-12-16T08:56:45.757Z,99219.81
2023-12-16T08:57:47.595Z,99211.88
2023-12-16T08:58:49.319Z,99215.19
2023-12-16T08:59:51.099Z,99225.41
2023-12-16T09:00:54.131Z,99227.88
2023-12-16T09:01:56.220Z,99224.28
2023-12-16T09:02:58.093Z,99220.84
2023-12-16T09:04:00.448Z,99227.56
2023-12-16T09:05:02.457Z,99223.22
2023-12-16T09:06:04.387Z,99225.09
2023-12-16T09:07:09.225Z,99226.25
2023-12-16T09:08:12.590Z,99225.41
2023-12-16T09:09:16.957Z,99232.94
2023-12-16T09:10:18.712Z,99232.75
2023-12-16T09:11:20.477Z,99232.75
2023-12-16T09:12:22.259Z,99230.97
2023-12-16T09:13:24.298Z,99236.88
2023-12-16T09:14:26.173Z,99232.53
2023-12-16T09:15:27.924Z,99234.63
2023-12-16T09:16:29.736Z,99229.88
2023-12-16T09:17:31.509Z,99234.81
2023-12-16T09:18:34.397Z,99232.22
2023-12-16T09:19:36.285Z,99226.34
2023-12-16T09:20:39.374Z,99234.09
2023-12-16T09:21:42.568Z,99233.91
2023-12-16T09:22:44.424Z,99234.63
2023-12-16T09:23:46.215Z,99236.06
2023-12-16T09:24:48.828Z,99239.13
2023-12-16T09:25:50.691Z,99234.56
2023-12-16T09:26:52.522Z,99240.38
2023-12-16T09:27:54.341Z,99225.56
2023-12-16T09:28:56.166Z,99228.03
2023-12-16T09:29:57.950Z,99229.78
2023-12-16T09:30:59.810Z,99219.88
2023-12-16T09:32:04.250Z,99218.69
2023-12-16T09:33:06.953Z,99220.63
2023-12-16T09:34:09.258Z,99221.97
2023-12-16T09:35:11.192Z,99230.44
2023-12-16T09:36:16.020Z,99225.28
2023-12-16T09:37:18.017Z,99229.41
2023-12-16T09:38:19.829Z,99230.94
2023-12-16T09:39:23.484Z,99226.72
2023-12-16T09:40:25.239Z,99228.34
2023-12-16T09:41:30.336Z,99224.53
2023-12-16T09:42:36.211Z,99221.72
2023-12-16T09:43:38.866Z,99220.44
2023-12-16T09:44:42.178Z,99227.06
2023-12-16T09:45:50.189Z,99221.06
2023-12-16T09:46:52.360Z,99230.50
2023-12-16T09:47:54.238Z,99228.72
2023-12-16T09:48:56.641Z,99231.22
2023-12-16T09:50:01.491Z,99231.06
2023-12-16T09:51:03.837Z,99230.88
2023-12-16T09:52:05.989Z,99229.81
2023-12-16T09:53:07.895Z,99228.91
2023-12-16T09:54:10.177Z,99223.72
2023-12-16T09:55:12.098Z,99222.69
2023-12-16T09:56:14.901Z,99226.69
2023-12-16T09:57:18.188Z,99228.13
2023-12-16T09:58:20.211Z,99229.78
2023-12-16T09:59:23.043Z,99236.72
2023-12-16T10:00:24.866Z,99235.88
2023-12-16T10:01:28.141Z,99239.41
2023-12-16T10:02:31.603Z,99242.84
2023-12-16T10:03:33.584Z,99239.63
2023-12-16T10:04:36.081Z,99239.84
2023-12-16T10:05:38.043Z,99234.56
2023-12-16T10:06:40.802Z,99231.78
2023-12-16T10:07:43.368Z,99235.88
2023-12-16T10:08:46.003Z,99228.94
2023-12-16T10:09:48.813Z,99231.31
2023-12-16T10:11:05.490Z,99242.28
2023-12-16T10:12:11.875Z,99240.19
2023-12-16T10:13:13.743Z,99236.16
2023-12-16T10:14:15.515Z,99239.72
2023-12-16T10:15:30.994Z,99241.25
2023-12-16T10:16:32.977Z,99239.25
2023-12-16T10:17:34.876Z,99243.50
2023-12-16T10:18:36.665Z,99246.06
2023-12-16T10:19:38.580Z,99239.97
2023-12-16T10:20:40.331Z,99239.13
2023-12-16T10:21:42.125Z,99245.09
2023-12-16T10:22:44.260Z,99239.41
2023-12-16T10:23:46.673Z,99240.34
2023-12-16T10:24:48.546Z,99244.38
2023-12-16T10:25:51.089Z,99239.00
2023-12-16T10:26:52.910Z,99246.53
2023-12-16T10:27:59.569Z,99238.75
2023-12-16T10:29:05.727Z,99244.75
2023-12-16T10:30:10.103Z,99237.56
2023-12-16T10:31:12.673Z,99241.28
2023-12-16T10:32:14.437Z,99235.19
2023-12-16T10:33:16.342Z,99233.19
2023-12-16T10:34:19.078Z,99230.38
2023-12-16T10:35:22.980Z,99232.66
2023-12-16T10:36:24.977Z,99232.53
2023-12-16T10:37:26.851Z,99224.88
2023-12-16T10:38:28.607Z,99223.94
2023-12-16T10:39:30.336Z,99224.03
2023-12-16T10:40:34.897Z,99224.38
2023-12-16T10:41:36.717Z,99219.22
2023-12-16T10:42:38.533Z,99219.22
2023-12-16T10:43:40.389Z,99216.72
2023-12-16T10:44:42.300Z,99220.25
2023-12-16T10:45:44.094Z,99212.59
2023-12-16T10:46:47.458Z,99211.69
2023-12-16T10:47:51.875Z,99213.09
2023-12-16T10:48:55.549Z,99209.34
2023-12-16T10:49:59.383Z,99218.66
2023-12-16T10:51:06.785Z,99220.28
2023-12-16T10:52:12.465Z,99212.66
2023-12-16T10:53:22.707Z,99216.16
2023-12-16T10:54:33.411Z,99217.00
2023-12-16T10:55:44.661Z,99212.88
2023-12-16T10:56:53.390Z,99209.34
2023-12-16T10:57:55.213Z,99208.41
2023-12-16T10:59:04.085Z,99206.53
2023-12-16T11:00:06.853Z,99209.72
2023-12-16T11:01:15.476Z,99206.09
2023-12-16T11:02:25.193Z,99211.16
2023-12-16T11:03:35.347Z,99208.47
2023-12-16T11:04:38.797Z,99199.97
2023-12-16T11:05:47.977Z,99202.69
2023-12-16T11:06:53.154Z,99207.03
2023-12-16T11:07:56.032Z,99204.22
2023-12-16T11:08:59.248Z,99205.16
2023-12-16T11:10:01.569Z,99203.16
2023-12-16T11:11:03.809Z,99205.75
2023-12-16T11:12:07.453Z,99206.59
2023-12-16T11:13:09.201Z,99199.75
2023-12-16T11:14:11.533Z,99200.56
2023-12-16T11:15:14.471Z,99197.88
2023-12-16T11:16:21.093Z,99198.59
2023-12-16T11:17:28.708Z,99196.22
2023-12-16T11:18:32.075Z,99190.09
2023-12-16T11:19:37.140Z,99199.41
2023-12-16T11:20:41.152Z,99196.59
2023-12-16T11:21:44.258Z,99197.31
2023-12-16T11:22:53.425Z,99196.50
2023-12-16T11:23:55.204Z,99196.72
2023-12-16T11:25:01.397Z,99195.78
2023-12-16T11:26:06.212Z,99192.47
2023-12-16T11:27:08.756Z,99192.47
2023-12-16T11:28:14.012Z,99192.25
2023-12-16T11:29:15.806Z,99195.19
2023-12-16T11:30:18.711Z,99187.03
2023-12-16T11:31:20.626Z,99189.50
2023-12-16T11:32:24.546Z,99190.34
2023-12-16T11:33:46.372Z,99193.97
2023-12-16T11:34:51.284Z,99184.31
2023-12-16T11:35:53.905Z,99185.38
2023-12-16T11:36:58.304Z,99185.28
2023-12-16T11:38:00.063Z,99181.88
2023-12-16T11:39:01.823Z,99182.56
2023-12-16T11:40:05.770Z,99174.81
2023-12-16T11:41:07.652Z,99172.44
2023-12-16T11:42:11.616Z,99174.09
2023-12-16T11:43:14.181Z,99170.78
2023-12-16T11:44:16.039Z,99166.44
2023-12-16T11:45:39.400Z,99163.13
2023-12-16T11:46:43.333Z,99163.47
2023-12-16T11:47:51.615Z,99168.53
2023-12-16T11:48:53.538Z,99168.88
2023-12-16T11:49:56.880Z,99160.63
2023-12-16T11:50:58.742Z,99158.75
2023-12-16T11:52:00.587Z,99157.78
2023-12-16T11:53:03.638Z,99148.06
2023-12-16T11:54:06.183Z,99146.78
2023-12-16T11:55:08.287Z,99145.13
2023-12-16T11:56:10.167Z,99152.88
2023-12-16T11:57:11.845Z,99142.44
2023-12-16T11:58:13.806Z,99138.78
2023-12-16T11:59:15.734Z,99136.91
2023-12-16T12:00:21.708Z,99141.38
2023-12-16T12:01:23.488Z,99144.66
2023-12-16T12:02:25.452Z,99143.59
2023-12-16T12:03:27.322Z,99140.91
2023-12-16T12:04:29.306Z,99139.13
2023-12-16T12:05:31.804Z,99133.97
2023-12-16T12:06:34.014Z,99139.47
2023-12-16T12:07:36.428Z,99144.91
2023-12-16T12:08:38.292Z,99141.38
2023-12-16T12:09:43.676Z,99144.78
2023-12-16T12:10:45.573Z,99139.72
2023-12-16T12:11:47.356Z,99143.25
2023-12-16T12:12:49.924Z,99142.53
2023-12-16T12:13:54.185Z,99132.06
2023-12-16T12:14:56.005Z,99132.06